createdAt,value
2024-02-21T00:00:10.767Z,93.15
2024-02-21T00:00:21.691Z,93.15
2024-02-21T00:00:32.628Z,93.15
2024-02-21T00:00:43.495Z,93.15
2024-02-21T00:00:54.422Z,93.25
2024-02-21T00:01:05.444Z,93.15
2024-02-21T00:01:15.834Z,93.15
2024-02-21T00:01:26.807Z,93.25
2024-02-21T00:01:37.375Z,93.25
2024-02-21T00:01:47.796Z,93.35
2024-02-21T00:01:58.677Z,93.35
2024-02-21T00:02:09.599Z,93.46
2024-02-21T00:02:20.445Z,93.35
2024-02-21T00:02:31.432Z,93.35
2024-02-21T00:02:42.301Z,93.25
2024-02-21T00:02:53.230Z,93.25
2024-02-21T00:03:04.072Z,93.25
2024-02-21T00:03:14.970Z,93.25
2024-02-21T00:03:25.859Z,93.25
2024-02-21T00:03:36.758Z,93.25
2024-02-21T00:03:47.660Z,93.15
2024-02-21T00:03:58.601Z,93.15
2024-02-21T00:04:09.498Z,93.15
2024-02-21T00:04:20.471Z,93.15
2024-02-21T00:04:31.451Z,93.15
2024-02-21T00:04:42.404Z,93.15
2024-02-21T00:04:53.354Z,93.25
2024-02-21T00:05:04.013Z,93.25
2024-02-21T00:05:14.537Z,93.15
2024-02-21T00:05:25.405Z,93.15
2024-02-21T00:05:36.400Z,93.25
2024-02-21T00:05:46.874Z,93.25
2024-02-21T00:05:57.753Z,93.25
2024-02-21T00:06:08.641Z,93.25
2024-02-21T00:06:19.535Z,93.35
2024-02-21T00:06:30.422Z,93.35
2024-02-21T00:06:41.325Z,93.35
2024-02-21T00:06:52.208Z,93.35
2024-02-21T00:07:03.111Z,93.35
2024-02-21T00:07:14.038Z,93.46
2024-02-21T00:07:24.968Z,93.56
2024-02-21T00:07:35.941Z,93.56
2024-02-21T00:07:46.443Z,93.56
2024-02-21T00:07:57.075Z,93.56
2024-02-21T00:08:07.680Z,93.66
2024-02-21T00:08:18.239Z,93.66
2024-02-21T00:08:28.748Z,93.66
2024-02-21T00:08:39.905Z,93.77
2024-02-21T00:08:50.484Z,93.77
2024-02-21T00:09:00.860Z,93.87
2024-02-21T00:09:11.750Z,93.87
2024-02-21T00:09:22.633Z,93.87
2024-02-21T00:09:33.525Z,93.87
2024-02-21T00:09:44.427Z,93.98
2024-02-21T00:09:55.322Z,93.87
2024-02-21T00:10:06.197Z,93.98
2024-02-21T00:10:17.167Z,93.98
2024-02-21T00:10:28.169Z,93.98
2024-02-21T00:10:38.634Z,93.87
2024-02-21T00:10:49.676Z,93.77
2024-02-21T00:11:00.112Z,93.66
2024-02-21T00:11:11.129Z,93.56
2024-02-21T00:11:21.597Z,93.56
2024-02-21T00:11:32.473Z,93.46
2024-02-21T00:11:43.382Z,93.35
2024-02-21T00:11:54.319Z,93.46
2024-02-21T00:12:05.167Z,93.46
2024-02-21T00:12:16.082Z,93.46
2024-02-21T00:12:26.955Z,93.56
2024-02-21T00:12:37.834Z,93.56
2024-02-21T00:12:48.737Z,93.56
2024-02-21T00:12:59.742Z,93.56
2024-02-21T00:13:10.663Z,93.56
2024-02-21T00:13:21.558Z,93.66
2024-02-21T00:13:32.526Z,93.77
2024-02-21T00:13:43.449Z,93.87
2024-02-21T00:13:54.412Z,93.87
2024-02-21T00:14:05.285Z,93.98
2024-02-21T00:14:16.162Z,93.98
2024-02-21T00:14:27.072Z,93.98
2024-02-21T00:14:37.966Z,93.98
2024-02-21T00:14:48.857Z,93.98
2024-02-21T00:14:59.769Z,94.08
2024-02-21T00:15:10.624Z,94.08
2024-02-21T00:15:21.509Z,94.08
2024-02-21T00:15:32.410Z,94.18
2024-02-21T00:15:43.295Z,94.18
2024-02-21T00:15:54.200Z,94.18
2024-02-21T00:16:05.085Z,94.08
2024-02-21T00:16:16.048Z,94.08
2024-02-21T00:16:26.934Z,94.08
2024-02-21T00:16:37.852Z,94.08
2024-02-21T00:16:48.780Z,94.08
2024-02-21T00:16:59.760Z,94.08
2024-02-21T00:17:10.621Z,94.08
2024-02-21T00:17:21.607Z,93.98
2024-02-21T00:17:32.521Z,93.87
2024-02-21T00:17:43.399Z,93.77
2024-02-21T00:17:54.294Z,93.66
2024-02-21T00:18:05.260Z,93.66
2024-02-21T00:18:16.265Z,93.77
2024-02-21T00:18:29.933Z,93.98
2024-02-21T00:18:38.310Z,94.08
2024-02-21T00:18:49.196Z,94.18
2024-02-21T00:19:00.166Z,94.18
2024-02-21T00:19:11.166Z,94.18
2024-02-21T00:19:21.708Z,94.28
2024-02-21T00:19:32.305Z,94.28
2024-02-21T00:19:43.177Z,94.28
2024-02-21T00:19:54.224Z,94.28
2024-02-21T00:20:04.656Z,94.28
2024-02-21T00:20:15.585Z,94.28
2024-02-21T00:20:26.453Z,94.28
2024-02-21T00:20:37.319Z,94.28
2024-02-21T00:20:48.214Z,94.28
2024-02-21T00:20:59.100Z,94.28
2024-02-21T00:21:09.988Z,94.28
2024-02-21T00:21:20.893Z,94.28
2024-02-21T00:21:31.802Z,94.28
2024-02-21T00:21:42.705Z,94.28
2024-02-21T00:21:53.607Z,94.28
2024-02-21T00:22:04.481Z,94.28
2024-02-21T00:22:15.418Z,94.28
2024-02-21T00:22:26.305Z,94.18
2024-02-21T00:22:37.187Z,94.18
2024-02-21T00:22:48.076Z,94.28
2024-02-21T00:22:58.975Z,94.28
2024-02-21T00:23:09.858Z,94.28
2024-02-21T00:23:20.787Z,94.38
2024-02-21T00:23:31.680Z,94.38
2024-02-21T00:23:42.570Z,94.38
2024-02-21T00:23:53.485Z,94.38
2024-02-21T00:24:04.386Z,94.38
2024-02-21T00:24:15.279Z,94.38
2024-02-21T00:24:26.247Z,94.28
2024-02-21T00:24:37.113Z,94.28
2024-02-21T00:24:48.013Z,94.18
2024-02-21T00:24:58.898Z,94.18
2024-02-21T00:25:09.927Z,94.18
2024-02-21T00:25:20.825Z,94.18
2024-02-21T00:25:31.749Z,94.18
2024-02-21T00:25:42.663Z,94.18
2024-02-21T00:25:53.607Z,94.18
2024-02-21T00:26:04.493Z,94.18
2024-02-21T00:26:15.413Z,94.18
2024-02-21T00:26:26.254Z,94.18
2024-02-21T00:26:37.149Z,94.18
2024-02-21T00:26:48.054Z,94.18
2024-02-21T00:26:58.939Z,94.18
2024-02-21T00:27:09.821Z,94.08
2024-02-21T00:27:20.702Z,94.18
2024-02-21T00:27:31.662Z,94.18
2024-02-21T00:27:42.508Z,94.18
2024-02-21T00:27:53.412Z,94.18
2024-02-21T00:28:04.318Z,94.18
2024-02-21T00:28:15.251Z,94.28
2024-02-21T00:28:26.116Z,94.28
2024-02-21T00:28:37.066Z,94.28
2024-02-21T00:28:47.940Z,94.28
2024-02-21T00:28:58.960Z,94.28
2024-02-21T00:29:09.575Z,94.28
2024-02-21T00:29:19.962Z,94.28
2024-02-21T00:29:30.881Z,94.28
2024-02-21T00:29:41.771Z,94.28
2024-02-21T00:29:52.661Z,94.28
2024-02-21T00:30:03.557Z,94.28
2024-02-21T00:30:14.429Z,94.18
2024-02-21T00:30:25.333Z,94.08
2024-02-21T00:30:36.249Z,94.08
2024-02-21T00:30:47.177Z,94.18
2024-02-21T00:30:58.065Z,94.18
2024-02-21T00:31:08.945Z,94.28
2024-02-21T00:31:19.893Z,94.28
2024-02-21T00:31:30.801Z,94.28
2024-02-21T00:31:41.708Z,94.28
2024-02-21T00:31:52.665Z,94.18
2024-02-21T00:32:03.196Z,94.18
2024-02-21T00:32:13.590Z,94.18
2024-02-21T00:32:24.473Z,94.28
2024-02-21T00:32:35.389Z,94.28
2024-02-21T00:32:46.317Z,94.28
2024-02-21T00:32:57.239Z,94.28
2024-02-21T00:33:08.182Z,94.28
2024-02-21T00:33:19.193Z,94.28
2024-02-21T00:33:29.843Z,94.18
2024-02-21T00:33:40.854Z,94.18
2024-02-21T00:33:51.797Z,94.18
2024-02-21T00:34:02.810Z,94.18
2024-02-21T00:34:13.332Z,94.18
2024-02-21T00:34:23.784Z,94.18
2024-02-21T00:34:34.803Z,94.18
2024-02-21T00:34:45.319Z,94.18
2024-02-21T00:34:55.752Z,94.18
2024-02-21T00:35:06.694Z,94.18
2024-02-21T00:35:17.628Z,94.28
2024-02-21T00:35:28.624Z,94.28
2024-02-21T00:35:39.576Z,94.28
2024-02-21T00:35:50.467Z,94.28
2024-02-21T00:36:01.347Z,94.38
2024-02-21T00:36:12.283Z,94.38
2024-02-21T00:36:23.175Z,94.38
2024-02-21T00:36:34.061Z,94.38
2024-02-21T00:36:44.974Z,94.38
2024-02-21T00:36:55.853Z,94.38
2024-02-21T00:37:06.800Z,94.38
2024-02-21T00:37:17.694Z,94.38
2024-02-21T00:37:28.579Z,94.38
2024-02-21T00:37:39.460Z,94.38
2024-02-21T00:37:50.376Z,94.38
2024-02-21T00:38:01.336Z,94.38
2024-02-21T00:38:12.224Z,94.28
2024-02-21T00:38:23.079Z,94.28
2024-02-21T00:38:33.988Z,94.28
2024-02-21T00:38:44.883Z,94.28
2024-02-21T00:38:55.775Z,94.28
2024-02-21T00:39:06.631Z,94.28
2024-02-21T00:39:17.539Z,94.28
2024-02-21T00:39:28.413Z,94.28
2024-02-21T00:39:39.293Z,94.38
2024-02-21T00:39:50.185Z,94.38
2024-02-21T00:40:01.113Z,94.38
2024-02-21T00:40:12.083Z,94.49
2024-02-21T00:40:23.128Z,94.38
2024-02-21T00:40:33.591Z,94.38
2024-02-21T00:40:44.464Z,94.38
2024-02-21T00:40:55.369Z,94.38
2024-02-21T00:41:06.260Z,94.38
2024-02-21T00:41:17.143Z,94.38
2024-02-21T00:41:28.009Z,94.38
2024-02-21T00:41:38.914Z,94.28
2024-02-21T00:41:49.821Z,94.28
2024-02-21T00:42:00.719Z,94.28
2024-02-21T00:42:11.627Z,94.28
2024-02-21T00:42:22.536Z,94.18
2024-02-21T00:42:33.434Z,94.18
2024-02-21T00:42:44.364Z,94.18
2024-02-21T00:42:55.288Z,94.18
2024-02-21T00:43:06.164Z,94.18
2024-02-21T00:43:17.131Z,94.18
2024-02-21T00:43:28.102Z,94.08
2024-02-21T00:43:39.064Z,94.08
2024-02-21T00:43:50.137Z,94.08
2024-02-21T00:44:00.611Z,93.98
2024-02-21T00:44:11.577Z,93.98
2024-02-21T00:44:22.536Z,93.98
2024-02-21T00:44:33.381Z,93.98
2024-02-21T00:44:44.270Z,93.98
2024-02-21T00:44:55.147Z,93.98
2024-02-21T00:45:06.030Z,93.98
2024-02-21T00:45:16.930Z,93.98
2024-02-21T00:45:27.811Z,93.98
2024-02-21T00:45:38.697Z,93.98
2024-02-21T00:45:49.589Z,93.98
2024-02-21T00:46:00.488Z,93.98
2024-02-21T00:46:11.395Z,93.98
2024-02-21T00:46:22.309Z,94.08
2024-02-21T00:46:33.171Z,94.08
2024-02-21T00:46:44.115Z,94.08
2024-02-21T00:46:55.145Z,94.08
2024-02-21T00:47:05.542Z,94.18
2024-02-21T00:47:16.423Z,94.18
2024-02-21T00:47:27.154Z,94.18
2024-02-21T00:47:38.132Z,94.18
2024-02-21T00:47:49.072Z,94.18
2024-02-21T00:48:00.000Z,94.28
2024-02-21T00:48:10.931Z,94.28
2024-02-21T00:48:21.857Z,94.28
2024-02-21T00:48:32.919Z,94.38
2024-02-21T00:48:43.468Z,94.38
2024-02-21T00:48:54.583Z,94.49
2024-02-21T00:49:05.019Z,94.49
2024-02-21T00:49:15.921Z,94.49
2024-02-21T00:49:26.816Z,94.49
2024-02-21T00:49:37.722Z,94.49
2024-02-21T00:49:48.666Z,94.49
2024-02-21T00:49:59.158Z,94.49
2024-02-21T00:50:10.738Z,94.38
2024-02-21T00:50:20.694Z,94.38
2024-02-21T00:50:31.587Z,94.38
2024-02-21T00:50:42.476Z,94.38
2024-02-21T00:50:53.370Z,94.28
2024-02-21T00:51:04.259Z,94.28
2024-02-21T00:51:15.182Z,94.28
2024-02-21T00:51:26.092Z,94.38
2024-02-21T00:51:36.973Z,94.38
2024-02-21T00:51:47.849Z,94.38
2024-02-21T00:51:58.760Z,94.49
2024-02-21T00:52:09.675Z,94.49
2024-02-21T00:52:20.547Z,94.59
2024-02-21T00:52:31.454Z,94.59
2024-02-21T00:52:42.325Z,94.70
2024-02-21T00:52:53.206Z,94.59
2024-02-21T00:53:04.124Z,94.70
2024-02-21T00:53:14.991Z,94.70
2024-02-21T00:53:25.894Z,94.70
2024-02-21T00:53:36.511Z,94.80
2024-02-21T00:53:47.415Z,94.80
2024-02-21T00:53:58.360Z,94.80
2024-02-21T00:54:09.229Z,94.80
2024-02-21T00:54:20.126Z,94.90
2024-02-21T00:54:40.445Z,95.00
2024-02-21T00:54:50.781Z,95.10
2024-02-21T00:54:58.539Z,95.10
2024-02-21T00:55:08.451Z,95.21
2024-02-21T00:55:19.420Z,95.25
2024-02-21T00:55:30.357Z,95.25
2024-02-21T00:55:41.291Z,95.31
2024-02-21T00:55:52.266Z,95.31
2024-02-21T00:56:02.755Z,95.36
2024-02-21T00:56:13.606Z,95.21
2024-02-21T00:56:24.520Z,95.25
2024-02-21T00:56:35.406Z,95.00
2024-02-21T00:56:46.320Z,94.90
2024-02-21T00:56:57.189Z,94.95
2024-02-21T00:57:08.074Z,94.95
2024-02-21T00:57:18.980Z,94.95
2024-02-21T00:57:29.838Z,94.90
2024-02-21T00:57:40.743Z,94.95
2024-02-21T00:57:51.618Z,94.95
2024-02-21T00:58:02.503Z,94.95
2024-02-21T00:58:13.464Z,94.95
2024-02-21T00:58:24.322Z,94.95
2024-02-21T00:58:35.219Z,95.05
2024-02-21T00:58:46.130Z,95.05
2024-02-21T00:58:57.042Z,95.00
2024-02-21T00:59:07.999Z,95.05
2024-02-21T00:59:18.873Z,95.15
2024-02-21T00:59:29.804Z,95.10
2024-02-21T00:59:40.654Z,95.15
2024-02-21T00:59:51.555Z,95.15
2024-02-21T01:00:02.460Z,95.10
2024-02-21T01:00:13.354Z,95.10
2024-02-21T01:00:24.236Z,95.05
2024-02-21T01:00:35.120Z,94.84
2024-02-21T01:00:46.050Z,94.74
2024-02-21T01:00:56.943Z,94.74
2024-02-21T01:01:07.872Z,94.74
2024-02-21T01:01:18.848Z,94.74
2024-02-21T01:01:29.796Z,94.74
2024-02-21T01:01:40.361Z,94.74
2024-02-21T01:01:50.849Z,94.64
2024-02-21T01:02:01.749Z,94.64
2024-02-21T01:02:12.667Z,94.64
2024-02-21T01:02:23.591Z,94.64
2024-02-21T01:02:34.454Z,94.64
2024-02-21T01:02:45.157Z,94.64
2024-02-21T01:02:56.071Z,94.64
2024-02-21T01:03:06.956Z,94.70
2024-02-21T01:03:17.906Z,94.70
2024-02-21T01:03:28.783Z,94.74
2024-02-21T01:03:39.708Z,94.70
2024-02-21T01:03:50.579Z,94.80
2024-02-21T01:04:01.571Z,94.84
2024-02-21T01:04:12.626Z,94.80
2024-02-21T01:04:23.071Z,94.70
2024-02-21T01:04:34.055Z,94.70
2024-02-21T01:04:44.981Z,94.84
2024-02-21T01:04:55.893Z,94.84
2024-02-21T01:05:06.903Z,94.80
2024-02-21T01:05:17.342Z,94.80
2024-02-21T01:05:28.259Z,94.84
2024-02-21T01:05:39.194Z,94.80
2024-02-21T01:05:50.142Z,94.95
2024-02-21T01:06:01.028Z,94.90
2024-02-21T01:06:11.965Z,94.90
2024-02-21T01:06:22.894Z,94.90
2024-02-21T01:06:33.803Z,95.05
2024-02-21T01:06:44.673Z,95.00
2024-02-21T01:06:55.560Z,94.95
2024-02-21T01:07:06.467Z,94.90
2024-02-21T01:07:17.438Z,94.90
2024-02-21T01:07:28.363Z,94.95
2024-02-21T01:07:39.237Z,94.90
2024-02-21T01:07:50.130Z,94.95
2024-02-21T01:08:01.024Z,94.95
2024-02-21T01:08:11.908Z,94.84
2024-02-21T01:08:22.793Z,94.84
2024-02-21T01:08:33.700Z,94.84
2024-02-21T01:08:44.602Z,94.84
2024-02-21T01:08:55.528Z,94.84
2024-02-21T01:09:06.433Z,94.84
2024-02-21T01:09:17.281Z,94.84
2024-02-21T01:09:28.201Z,94.95
2024-02-21T01:09:39.066Z,94.95
2024-02-21T01:09:49.954Z,94.95
2024-02-21T01:10:00.855Z,94.95
2024-02-21T01:10:11.800Z,94.95
2024-02-21T01:10:22.747Z,95.05
2024-02-21T01:10:33.618Z,95.05
2024-02-21T01:10:44.699Z,95.15
2024-02-21T01:10:55.178Z,95.15
2024-02-21T01:11:06.169Z,95.15
2024-02-21T01:11:16.873Z,95.15
2024-02-21T01:11:27.325Z,95.05
2024-02-21T01:11:38.240Z,95.05
2024-02-21T01:11:49.104Z,95.05
2024-02-21T01:12:00.098Z,94.95
2024-02-21T01:12:11.043Z,94.95
2024-02-21T01:12:21.949Z,94.95
2024-02-21T01:12:32.922Z,94.95
2024-02-21T01:12:43.829Z,94.95
2024-02-21T01:12:54.738Z,94.95
2024-02-21T01:13:05.609Z,94.95
2024-02-21T01:13:16.587Z,94.95
2024-02-21T01:13:27.554Z,94.95
2024-02-21T01:13:38.450Z,95.05
2024-02-21T01:13:49.375Z,95.05
2024-02-21T01:14:00.282Z,95.15
2024-02-21T01:14:11.139Z,95.15
2024-02-21T01:14:22.069Z,95.15
2024-02-21T01:14:32.952Z,95.15
2024-02-21T01:14:43.824Z,95.15
2024-02-21T01:14:54.720Z,95.15
2024-02-21T01:15:05.630Z,95.15
2024-02-21T01:15:16.526Z,95.25
2024-02-21T01:15:27.407Z,95.25
2024-02-21T01:15:38.297Z,95.25
2024-02-21T01:15:49.181Z,95.25
2024-02-21T01:16:00.074Z,95.15
2024-02-21T01:16:10.992Z,95.15
2024-02-21T01:16:21.877Z,95.15
2024-02-21T01:16:32.847Z,95.15
2024-02-21T01:16:43.759Z,95.15
2024-02-21T01:16:54.783Z,95.15
2024-02-21T01:17:05.201Z,95.15
2024-02-21T01:17:16.060Z,95.05
2024-02-21T01:17:27.005Z,95.05
2024-02-21T01:17:37.870Z,95.05
2024-02-21T01:17:48.888Z,95.05
2024-02-21T01:17:59.395Z,95.05
2024-02-21T01:18:09.851Z,95.05
2024-02-21T01:18:20.801Z,95.15
2024-02-21T01:18:31.847Z,95.15
2024-02-21T01:18:42.361Z,95.05
2024-02-21T01:18:52.866Z,95.05
2024-02-21T01:19:03.812Z,94.95
2024-02-21T01:19:14.331Z,94.95
2024-02-21T01:19:25.370Z,94.95
2024-02-21T01:19:35.857Z,94.84
2024-02-21T01:19:46.765Z,94.95
2024-02-21T01:19:57.723Z,94.95
2024-02-21T01:20:08.683Z,94.95
2024-02-21T01:20:19.064Z,94.95
2024-02-21T01:20:29.924Z,94.95
2024-02-21T01:20:40.812Z,94.95
2024-02-21T01:20:51.692Z,94.95
2024-02-21T01:21:02.634Z,94.95
2024-02-21T01:21:13.501Z,94.95
2024-02-21T01:21:24.380Z,95.05
2024-02-21T01:21:35.273Z,95.05
2024-02-21T01:21:46.165Z,95.15
2024-02-21T01:21:57.051Z,95.25
2024-02-21T01:22:07.996Z,95.15
2024-02-21T01:22:18.961Z,95.05
2024-02-21T01:22:29.366Z,94.95
2024-02-21T01:22:40.271Z,94.95
2024-02-21T01:22:51.212Z,94.95
2024-02-21T01:23:02.141Z,95.05
2024-02-21T01:23:13.023Z,95.05
2024-02-21T01:23:23.902Z,95.15
2024-02-21T01:23:34.799Z,95.15
2024-02-21T01:23:45.685Z,95.15
2024-02-21T01:23:56.573Z,95.15
2024-02-21T01:24:07.464Z,95.15
2024-02-21T01:24:18.374Z,95.15
2024-02-21T01:24:29.247Z,95.25
2024-02-21T01:24:40.162Z,95.25
2024-02-21T01:24:51.077Z,95.36
2024-02-21T01:25:01.937Z,95.46
2024-02-21T01:25:12.890Z,95.46
2024-02-21T01:25:23.805Z,95.36
2024-02-21T01:25:34.700Z,95.36
2024-02-21T01:25:45.594Z,95.36
2024-02-21T01:25:56.553Z,95.36
2024-02-21T01:26:07.382Z,95.46
2024-02-21T01:26:18.272Z,95.46
2024-02-21T01:26:29.191Z,95.46
2024-02-21T01:26:40.034Z,95.46
2024-02-21T01:26:50.923Z,95.36
2024-02-21T01:27:01.829Z,95.25
2024-02-21T01:27:12.735Z,95.15
2024-02-21T01:27:23.601Z,95.05
2024-02-21T01:27:34.504Z,95.05
2024-02-21T01:27:45.385Z,95.15
2024-02-21T01:27:56.307Z,95.15
2024-02-21T01:28:07.177Z,95.25
2024-02-21T01:28:18.095Z,95.15
2024-02-21T01:28:28.973Z,95.15
2024-02-21T01:28:39.900Z,95.15
2024-02-21T01:28:50.985Z,95.15
2024-02-21T01:29:01.419Z,95.15
2024-02-21T01:29:12.283Z,95.15
2024-02-21T01:29:23.200Z,95.25
2024-02-21T01:29:34.070Z,95.36
2024-02-21T01:29:44.949Z,95.36
2024-02-21T01:29:55.851Z,95.25
2024-02-21T01:30:06.742Z,95.25
2024-02-21T01:30:17.629Z,95.25
2024-02-21T01:30:28.545Z,95.15
2024-02-21T01:30:39.419Z,95.15
2024-02-21T01:30:50.326Z,95.25
2024-02-21T01:31:01.200Z,95.25
2024-02-21T01:31:12.176Z,95.25
2024-02-21T01:31:23.038Z,95.25
2024-02-21T01:31:34.037Z,95.36
2024-02-21T01:31:44.477Z,95.46
2024-02-21T01:31:55.405Z,95.56
2024-02-21T01:32:06.312Z,95.46
2024-02-21T01:32:17.180Z,95.46
2024-02-21T01:32:28.072Z,95.46
2024-02-21T01:32:39.004Z,95.36
2024-02-21T01:32:49.887Z,95.36
2024-02-21T01:33:00.759Z,95.46
2024-02-21T01:33:11.647Z,95.46
2024-02-21T01:33:22.527Z,95.46
2024-02-21T01:33:33.423Z,95.46
2024-02-21T01:33:44.323Z,95.46
2024-02-21T01:33:55.208Z,95.46
2024-02-21T01:34:06.092Z,95.46
2024-02-21T01:34:17.041Z,95.36
2024-02-21T01:34:29.568Z,95.25
2024-02-21T01:34:39.330Z,95.25
2024-02-21T01:34:50.357Z,95.36
2024-02-21T01:35:00.873Z,95.46
2024-02-21T01:35:11.317Z,95.46
2024-02-21T01:35:22.234Z,95.56
2024-02-21T01:35:33.245Z,95.67
2024-02-21T01:35:44.185Z,95.77
2024-02-21T01:35:55.185Z,95.87
2024-02-21T01:36:05.771Z,95.87
2024-02-21T01:36:16.263Z,95.87
2024-02-21T01:36:27.125Z,95.87
2024-02-21T01:36:38.054Z,95.87
2024-02-21T01:36:48.940Z,95.87
2024-02-21T01:36:59.850Z,95.87
2024-02-21T01:37:10.794Z,95.77
2024-02-21T01:37:21.758Z,95.77
2024-02-21T01:37:32.722Z,95.77
2024-02-21T01:37:43.728Z,95.77
2024-02-21T01:37:54.674Z,95.77
2024-02-21T01:38:05.640Z,95.67
2024-02-21T01:38:16.115Z,95.77
2024-02-21T01:38:26.970Z,95.77
2024-02-21T01:38:37.860Z,95.77
2024-02-21T01:38:48.738Z,95.77
2024-02-21T01:38:59.627Z,95.77
2024-02-21T01:39:10.515Z,95.77
2024-02-21T01:39:21.466Z,95.77
2024-02-21T01:39:32.317Z,95.77
2024-02-21T01:39:43.211Z,95.77
2024-02-21T01:39:54.074Z,95.87
2024-02-21T01:40:04.975Z,95.87
2024-02-21T01:40:15.906Z,95.87
2024-02-21T01:40:26.775Z,95.87
2024-02-21T01:40:37.661Z,95.98
2024-02-21T01:40:48.624Z,95.98
2024-02-21T01:40:59.579Z,95.87
2024-02-21T01:41:10.547Z,95.87
2024-02-21T01:41:21.427Z,95.77
2024-02-21T01:41:32.326Z,95.67
2024-02-21T01:41:43.239Z,95.56
2024-02-21T01:41:54.124Z,95.56
2024-02-21T01:42:05.030Z,95.56
2024-02-21T01:42:15.912Z,95.56
2024-02-21T01:42:26.808Z,95.56
2024-02-21T01:42:37.335Z,95.67
2024-02-21T01:42:48.224Z,95.67
2024-02-21T01:42:59.134Z,95.67
2024-02-21T01:43:10.000Z,95.56
2024-02-21T01:43:20.946Z,95.56
2024-02-21T01:43:31.906Z,95.56
2024-02-21T01:43:42.777Z,95.56
2024-02-21T01:43:53.917Z,95.56
2024-02-21T01:44:04.306Z,95.56
2024-02-21T01:44:15.208Z,95.67
2024-02-21T01:44:26.090Z,95.67
2024-02-21T01:44:36.970Z,95.67
2024-02-21T01:44:47.878Z,95.67
2024-02-21T01:44:58.762Z,95.67
2024-02-21T01:45:09.657Z,95.67
2024-02-21T01:45:20.525Z,95.77
2024-02-21T01:45:31.421Z,95.77
2024-02-21T01:45:42.304Z,95.77
2024-02-21T01:45:53.212Z,95.77
2024-02-21T01:46:04.081Z,95.87
2024-02-21T01:46:14.985Z,95.87
2024-02-21T01:46:25.894Z,95.98
2024-02-21T01:46:36.830Z,95.98
2024-02-21T01:46:47.759Z,96.08
2024-02-21T01:46:58.686Z,96.08
2024-02-21T01:47:09.571Z,96.08
2024-02-21T01:47:20.471Z,96.08
2024-02-21T01:47:31.390Z,96.08
2024-02-21T01:47:42.293Z,96.08
2024-02-21T01:47:53.218Z,96.08
2024-02-21T01:48:04.258Z,96.08
2024-02-21T01:48:15.202Z,96.08
2024-02-21T01:48:26.294Z,96.08
2024-02-21T01:48:36.843Z,96.08
2024-02-21T01:48:48.119Z,95.98
2024-02-21T01:48:58.546Z,95.98
2024-02-21T01:49:09.467Z,95.98
2024-02-21T01:49:20.403Z,95.98
2024-02-21T01:49:31.386Z,95.98
2024-02-21T01:49:42.309Z,95.98
2024-02-21T01:49:53.236Z,95.98
2024-02-21T01:50:04.195Z,95.98
2024-02-21T01:50:14.589Z,95.98
2024-02-21T01:50:25.486Z,95.98
2024-02-21T01:50:36.389Z,96.08
2024-02-21T01:50:47.272Z,96.08
2024-02-21T01:50:58.181Z,96.18
2024-02-21T01:51:09.061Z,96.28
2024-02-21T01:51:19.947Z,96.28
2024-02-21T01:51:30.848Z,96.28
2024-02-21T01:51:41.727Z,96.39
2024-02-21T01:51:52.622Z,96.39
2024-02-21T01:52:03.524Z,96.49
2024-02-21T01:52:14.463Z,96.39
2024-02-21T01:52:25.358Z,96.39
2024-02-21T01:52:36.251Z,96.39
2024-02-21T01:52:47.147Z,96.39
2024-02-21T01:52:58.063Z,96.28
2024-02-21T01:53:08.906Z,96.28
2024-02-21T01:53:19.797Z,96.18
2024-02-21T01:53:30.677Z,96.18
2024-02-21T01:53:41.580Z,96.28
2024-02-21T01:53:52.451Z,96.28
2024-02-21T01:54:03.375Z,96.28
2024-02-21T01:54:14.245Z,96.28
2024-02-21T01:54:25.177Z,96.28
2024-02-21T01:54:36.031Z,96.28
2024-02-21T01:54:47.816Z,96.39
2024-02-21T01:54:57.695Z,96.39
2024-02-21T01:55:08.580Z,96.49
2024-02-21T01:55:19.570Z,96.49
2024-02-21T01:55:30.443Z,96.39
2024-02-21T01:55:42.704Z,96.28
2024-02-21T01:55:52.359Z,96.28
2024-02-21T01:56:03.246Z,96.28
2024-02-21T01:56:14.121Z,96.28
2024-02-21T01:56:25.019Z,96.39
2024-02-21T01:56:35.917Z,96.39
2024-02-21T01:56:46.812Z,96.39
2024-02-21T01:56:57.697Z,96.39
2024-02-21T01:57:08.580Z,96.39
2024-02-21T01:57:19.477Z,96.49
2024-02-21T01:57:30.435Z,96.49
2024-02-21T01:57:41.327Z,96.49
2024-02-21T01:57:52.209Z,96.49
2024-02-21T01:58:03.086Z,96.59
2024-02-21T01:58:14.028Z,96.59
2024-02-21T01:58:24.977Z,96.70
2024-02-21T01:58:35.866Z,96.70
2024-02-21T01:58:46.886Z,96.70
2024-02-21T01:58:57.784Z,96.70
2024-02-21T01:59:08.750Z,96.70
2024-02-21T01:59:19.617Z,96.70
2024-02-21T01:59:30.504Z,96.80
2024-02-21T01:59:41.386Z,96.80
2024-02-21T01:59:52.279Z,96.80
2024-02-21T02:00:03.183Z,96.80
2024-02-21T02:00:14.049Z,96.70
2024-02-21T02:00:24.947Z,96.70
2024-02-21T02:00:35.874Z,96.59
2024-02-21T02:00:46.787Z,96.49
2024-02-21T02:00:57.696Z,96.49
2024-02-21T02:01:08.634Z,96.39
2024-02-21T02:01:22.165Z,96.28
2024-02-21T02:01:30.580Z,96.28
2024-02-21T02:01:41.507Z,96.28
2024-02-21T02:01:52.393Z,96.39
2024-02-21T02:02:03.391Z,96.39
2024-02-21T02:02:14.352Z,96.39
2024-02-21T02:02:25.334Z,96.49
2024-02-21T02:02:36.192Z,96.49
2024-02-21T02:02:47.083Z,96.49
2024-02-21T02:02:57.995Z,96.49
2024-02-21T02:03:08.891Z,96.49
2024-02-21T02:03:19.847Z,96.49
2024-02-21T02:03:30.741Z,96.59
2024-02-21T02:03:41.632Z,96.59
2024-02-21T02:03:52.689Z,96.59
2024-02-21T02:04:03.201Z,96.49
2024-02-21T02:04:14.090Z,96.49
2024-02-21T02:04:24.984Z,96.49
2024-02-21T02:04:35.916Z,96.49
2024-02-21T02:04:46.802Z,96.49
2024-02-21T02:04:57.713Z,96.49
2024-02-21T02:05:08.639Z,96.49
2024-02-21T02:05:19.495Z,96.59
2024-02-21T02:05:30.412Z,96.49
2024-02-21T02:05:41.373Z,96.49
2024-02-21T02:05:52.197Z,96.49
2024-02-21T02:06:03.121Z,96.49
2024-02-21T02:06:14.057Z,96.49
2024-02-21T02:06:24.931Z,96.49
2024-02-21T02:06:35.894Z,96.39
2024-02-21T02:06:46.799Z,96.39
2024-02-21T02:06:57.647Z,96.39
2024-02-21T02:07:08.676Z,96.39
2024-02-21T02:07:19.162Z,96.39
2024-02-21T02:07:30.090Z,96.28
2024-02-21T02:07:41.054Z,96.28
2024-02-21T02:07:51.963Z,96.28
2024-02-21T02:08:02.897Z,96.28
2024-02-21T02:08:13.786Z,96.28
2024-02-21T02:08:24.681Z,96.28
2024-02-21T02:08:35.551Z,96.39
2024-02-21T02:08:46.520Z,96.49
2024-02-21T02:08:57.361Z,96.59
2024-02-21T02:09:08.275Z,96.70
2024-02-21T02:09:19.138Z,96.70
2024-02-21T02:09:30.088Z,96.70
2024-02-21T02:09:40.976Z,96.70
2024-02-21T02:09:51.860Z,96.70
2024-02-21T02:10:02.731Z,96.70
2024-02-21T02:10:13.632Z,96.70
2024-02-21T02:10:24.583Z,96.70
2024-02-21T02:10:35.493Z,96.70
2024-02-21T02:10:46.456Z,96.70
2024-02-21T02:10:57.411Z,96.70
2024-02-21T02:11:08.567Z,96.70
2024-02-21T02:11:19.074Z,96.70
2024-02-21T02:11:29.560Z,96.59
2024-02-21T02:11:40.448Z,96.59
2024-02-21T02:11:51.407Z,96.59
2024-02-21T02:12:02.364Z,96.59
2024-02-21T02:12:13.232Z,96.59
2024-02-21T02:12:24.112Z,96.59
2024-02-21T02:12:35.006Z,96.59
2024-02-21T02:12:45.896Z,96.59
2024-02-21T02:12:56.785Z,96.59
2024-02-21T02:13:07.677Z,96.59
2024-02-21T02:13:18.597Z,96.59
2024-02-21T02:13:29.504Z,96.59
2024-02-21T02:13:40.434Z,96.49
2024-02-21T02:13:51.295Z,96.39
2024-02-21T02:14:02.249Z,96.39
2024-02-21T02:14:13.092Z,96.39
2024-02-21T02:14:24.006Z,96.39
2024-02-21T02:14:34.874Z,96.49
2024-02-21T02:14:45.846Z,96.49
2024-02-21T02:14:56.763Z,96.49
2024-02-21T02:15:07.656Z,96.59
2024-02-21T02:15:18.535Z,96.59
2024-02-21T02:15:29.417Z,96.59
2024-02-21T02:15:40.310Z,96.59
2024-02-21T02:15:51.220Z,96.59
2024-02-21T02:16:02.101Z,96.49
2024-02-21T02:16:13.033Z,96.59
2024-02-21T02:16:23.882Z,96.59
2024-02-21T02:16:34.765Z,96.59
2024-02-21T02:16:45.713Z,96.59
2024-02-21T02:16:56.664Z,96.59
2024-02-21T02:17:07.529Z,96.59
2024-02-21T02:17:18.421Z,96.49
2024-02-21T02:17:29.393Z,96.49
2024-02-21T02:17:40.283Z,96.39
2024-02-21T02:17:51.182Z,96.49
2024-02-21T02:18:02.077Z,96.59
2024-02-21T02:18:13.041Z,96.59
2024-02-21T02:18:23.981Z,96.59
2024-02-21T02:18:34.566Z,96.70
2024-02-21T02:18:45.052Z,96.70
2024-02-21T02:18:56.132Z,96.70
2024-02-21T02:19:06.979Z,96.80
2024-02-21T02:19:18.095Z,96.80
2024-02-21T02:19:28.604Z,96.80
2024-02-21T02:19:39.323Z,96.80
2024-02-21T02:19:49.846Z,96.80
2024-02-21T02:20:00.851Z,96.70
2024-02-21T02:20:11.477Z,96.80